Time;durP1;ratioP1;P1;durP2;ratioP2;P2;SDS_P1;SDS_P2;PMS_P1;PMS_P2;Temp;Humidity;BMP_temperature;BMP_pressure;BME280_temperature;BME280_humidity;BME280_pressure;Samples;Min_cycle;Max_cycle;Signal;HPM_P1;HPM_P2
2023/06/13 00:00:17;;;;;;;0.35;0.20;;;;;;;;;;5004021;28;20639;-79
2023/06/13 00:02:44;;;;;;;0.40;0.28;;;;;;;;;;5002534;28;20037;-77
2023/06/13 00:05:11;;;;;;;0.25;0.13;;;;;;;;;;4981798;28;20045;-76
2023/06/13 00:07:37;;;;;;;0.20;0.10;;;;;;;;;;4999697;28;20048;-78
2023/06/13 00:10:07;;;;;;;0.43;0.43;;;;;;;;;;4998475;28;20599;-79
2023/06/13 00:12:36;;;;;;;0.20;0.05;;;;;;;;;;4979999;28;20055;-77
2023/06/13 00:15:06;;;;;;;1.35;0.43;;;;;;;;;;4983489;28;20045;-79
2023/06/13 00:17:32;;;;;;;0.35;0.32;;;;;;;;;;4978597;28;20048;-77
2023/06/13 00:20:04;;;;;;;0.20;0.10;;;;;;;;;;5000694;28;20045;-78
2023/06/13 00:22:30;;;;;;;1.08;0.55;;;;;;;;;;4977258;28;20072;-78
2023/06/13 00:24:56;;;;;;;0.20;0.10;;;;;;;;;;4994958;28;20044;-77
2023/06/13 00:27:22;;;;;;;0.20;0.10;;;;;;;;;;5005254;28;20037;-79
2023/06/13 00:29:48;;;;;;;0.20;0.10;;;;;;;;;;5010144;28;20037;-77
2023/06/13 00:32:15;;;;;;;0.20;0.10;;;;;;;;;;5002057;28;20864;-78
2023/06/13 00:34:41;;;;;;;0.20;0.10;;;;;;;;;;4993996;28;20049;-77
2023/06/13 00:37:13;;;;;;;0.20;0.10;;;;;;;;;;4993326;28;20064;-77
2023/06/13 00:39:39;;;;;;;0.20;0.10;;;;;;;;;;5011835;28;20396;-78
2023/06/13 00:42:06;;;;;;;0.30;0.30;;;;;;;;;;4993886;28;20452;-78
2023/06/13 00:44:32;;;;;;;0.20;0.20;;;;;;;;;;5009088;28;20087;-78
2023/06/13 00:47:00;;;;;;;0.22;0.22;;;;;;;;;;5013021;28;20095;-77
2023/06/13 00:49:26;;;;;;;0.30;0.10;;;;;;;;;;5008866;28;20055;-77
2023/06/13 00:51:54;;;;;;;1.60;0.40;;;;;;;;;;5003176;28;20059;-78
2023/06/13 00:54:21;;;;;;;0.20;0.10;;;;;;;;;;4974288;28;20049;-77
2023/06/13 00:56:48;;;;;;;0.20;0.20;;;;;;;;;;4984146;28;20044;-78
2023/06/13 00:59:15;;;;;;;0.20;0.17;;;;;;;;;;4964549;28;20393;-78
2023/06/13 01:01:42;;;;;;;0.20;0.10;;;;;;;;;;4983608;28;20036;-77
2023/06/13 01:04:08;;;;;;;0.20;0.20;;;;;;;;;;4996678;28;20577;-78
2023/06/13 01:06:40;;;;;;;0.28;0.20;;;;;;;;;;4994667;28;20041;-78
2023/06/13 01:09:07;;;;;;;0.20;0.10;;;;;;;;;;4994857;28;20049;-78
2023/06/13 01:11:40;;;;;;;0.20;0.10;;;;;;;;;;5001133;28;20613;-77
2023/06/13 01:14:30;;;;;;;0.20;0.10;;;;;;;;;;4994452;28;20044;-77
2023/06/13 01:17:03;;;;;;;0.20;0.10;;;;;;;;;;4992669;28;20047;-77
2023/06/13 01:19:31;;;;;;;0.75;0.35;;;;;;;;;;4976940;28;20349;-76
2023/06/13 01:21:58;;;;;;;0.55;0.35;;;;;;;;;;4994323;28;20765;-77
2023/06/13 01:24:38;;;;;;;0.30;0.20;;;;;;;;;;4994780;28;20466;-78
2023/06/13 01:27:05;;;;;;;0.20;0.10;;;;;;;;;;5009420;28;20586;-77
2023/06/13 01:29:34;;;;;;;0.25;0.22;;;;;;;;;;4990475;28;20040;-77
2023/06/13 01:32:00;;;;;;;0.38;0.30;;;;;;;;;;5027118;28;20053;-78
2023/06/13 01:34:26;;;;;;;0.20;0.10;;;;;;;;;;4991186;28;20206;-77
2023/06/13 01:36:52;;;;;;;0.28;0.10;;;;;;;;;;5010769;28;20391;-77
2023/06/13 01:39:19;;;;;;;0.20;0.10;;;;;;;;;;5007169;28;20110;-77
2023/06/13 01:41:45;;;;;;;0.20;0.10;;;;;;;;;;4991842;28;20037;-77
2023/06/13 01:44:16;;;;;;;0.20;0.17;;;;;;;;;;4982464;28;20043;-77
2023/06/13 01:46:44;;;;;;;0.30;0.20;;;;;;;;;;5008804;28;20377;-79
2023/06/13 01:49:28;;;;;;;0.30;0.25;;;;;;;;;;5004966;28;20033;-78
2023/06/13 01:51:55;;;;;;;0.30;0.20;;;;;;;;;;5005901;28;20562;-78
2023/06/13 01:54:22;;;;;;;0.32;0.20;;;;;;;;;;5012048;28;20048;-78
2023/06/13 01:56:49;;;;;;;0.20;0.20;;;;;;;;;;5013995;28;20052;-78
2023/06/13 01:59:16;;;;;;;0.20;0.10;;;;;;;;;;4990272;28;20151;-76
2023/06/13 02:01:44;;;;;;;0.20;0.10;;;;;;;;;;5011771;28;20056;-77
2023/06/13 02:04:10;;;;;;;0.20;0.20;;;;;;;;;;5007076;28;20887;-78
2023/06/13 02:06:36;;;;;;;0.20;0.10;;;;;;;;;;5004774;28;20045;-77
2023/06/13 02:09:03;;;;;;;0.20;0.10;;;;;;;;;;4993345;28;20355;-78
2023/06/13 02:11:29;;;;;;;0.20;0.10;;;;;;;;;;5007940;28;20131;-78
2023/06/13 02:13:55;;;;;;;0.20;0.10;;;;;;;;;;4998373;28;20040;-77
2023/06/13 02:16:25;;;;;;;0.22;0.10;;;;;;;;;;5004773;28;20568;-77
2023/06/13 02:18:51;;;;;;;0.20;0.10;;;;;;;;;;5002505;28;20123;-79
2023/06/13 02:21:17;;;;;;;0.20;0.10;;;;;;;;;;4984078;28;20059;-77
2023/06/13 02:23:43;;;;;;;0.20;0.10;;;;;;;;;;5000240;28;20045;-78
2023/06/13 02:26:09;;;;;;;2.08;0.20;;;;;;;;;;4998636;28;20045;-78
2023/06/13 02:28:36;;;;;;;0.30;0.28;;;;;;;;;;4982096;28;20040;-77
2023/06/13 02:31:02;;;;;;;0.20;0.20;;;;;;;;;;4979570;28;20131;-77
2023/06/13 02:33:30;;;;;;;0.28;0.20;;;;;;;;;;4989142;28;20446;-77
2023/06/13 02:35:56;;;;;;;0.50;0.25;;;;;;;;;;4978894;28;20078;-77
2023/06/13 02:38:22;;;;;;;0.30;0.22;;;;;;;;;;4996257;28;20041;-78
2023/06/13 02:40:48;;;;;;;0.30;0.10;;;;;;;;;;5002307;28;20394;-77
2023/06/13 02:43:14;;;;;;;0.20;0.10;;;;;;;;;;5000085;28;20041;-79
2023/06/13 02:45:40;;;;;;;0.30;0.30;;;;;;;;;;5011860;28;20052;-78
2023/06/13 02:48:06;;;;;;;0.20;0.10;;;;;;;;;;5008059;28;20077;-77
2023/06/13 02:50:32;;;;;;;0.20;0.10;;;;;;;;;;5006878;28;20072;-77
2023/06/13 02:52:58;;;;;;;0.20;0.10;;;;;;;;;;5009150;28;20599;-77
2023/06/13 02:55:24;;;;;;;0.90;0.35;;;;;;;;;;5012262;28;20045;-78
2023/06/13 02:57:50;;;;;;;0.20;0.10;;;;;;;;;;5014835;28;20268;-77
2023/06/13 03:00:16;;;;;;;0.40;0.20;;;;;;;;;;5007027;28;20573;-78
2023/06/13 03:02:43;;;;;;;0.20;0.20;;;;;;;;;;5007312;28;20504;-77
2023/06/13 03:05:10;;;;;;;0.20;0.10;;;;;;;;;;4988042;28;20338;-77
2023/06/13 03:07:36;;;;;;;0.20;0.10;;;;;;;;;;4990406;28;20343;-78
2023/06/13 03:10:03;;;;;;;0.20;0.10;;;;;;;;;;4995258;28;20614;-78
2023/06/13 03:12:30;;;;;;;0.20;0.20;;;;;;;;;;5009524;28;20080;-77
2023/06/13 03:14:56;;;;;;;0.20;0.20;;;;;;;;;;5011942;28;20041;-78
2023/06/13 03:17:22;;;;;;;0.20;0.10;;;;;;;;;;4984788;28;20122;-77
2023/06/13 03:19:48;;;;;;;0.30;0.25;;;;;;;;;;4999056;28;20141;-77
2023/06/13 03:22:14;;;;;;;1.30;0.50;;;;;;;;;;5002172;28;22140;-78
2023/06/13 03:24:47;;;;;;;0.20;0.20;;;;;;;;;;5001202;28;20215;-77
2023/06/13 03:27:13;;;;;;;0.40;0.30;;;;;;;;;;4999575;28;20528;-78
2023/06/13 03:29:40;;;;;;;0.20;0.10;;;;;;;;;;4979079;28;20098;-77
2023/06/13 03:32:07;;;;;;;0.20;0.10;;;;;;;;;;4998494;28;20128;-77
2023/06/13 03:34:37;;;;;;;0.20;0.10;;;;;;;;;;4982571;28;20048;-77
2023/06/13 03:37:04;;;;;;;0.20;0.10;;;;;;;;;;4977752;28;20049;-77
2023/06/13 03:39:30;;;;;;;0.60;0.35;;;;;;;;;;4998610;28;20041;-77
2023/06/13 03:41:56;;;;;;;0.20;0.10;;;;;;;;;;4980328;28;20063;-78
2023/06/13 03:44:22;;;;;;;0.32;0.32;;;;;;;;;;4977843;28;20048;-77
2023/06/13 03:46:48;;;;;;;0.20;0.10;;;;;;;;;;4976827;28;20107;-78
2023/06/13 03:49:14;;;;;;;0.20;0.10;;;;;;;;;;4984591;28;20616;-77
2023/06/13 03:51:40;;;;;;;0.30;0.25;;;;;;;;;;4999108;28;20048;-77
2023/06/13 03:54:06;;;;;;;0.45;0.45;;;;;;;;;;5011711;28;20044;-78
2023/06/13 03:56:32;;;;;;;0.20;0.10;;;;;;;;;;4995355;28;20034;-79
2023/06/13 03:58:58;;;;;;;0.28;0.13;;;;;;;;;;5007800;28;20036;-79
2023/06/13 04:01:24;;;;;;;0.30;0.30;;;;;;;;;;4998563;28;20579;-79
2023/06/13 04:03:50;;;;;;;0.25;0.10;;;;;;;;;;5009243;28;20855;-79
2023/06/13 04:06:16;;;;;;;0.20;0.10;;;;;;;;;;5011395;28;20048;-78
2023/06/13 04:08:42;;;;;;;0.20;0.10;;;;;;;;;;5013896;28;20132;-78
2023/06/13 04:11:08;;;;;;;0.45;0.22;;;;;;;;;;4995342;28;20532;-78
2023/06/13 04:13:34;;;;;;;0.20;0.10;;;;;;;;;;5015843;28;20045;-78
2023/06/13 04:16:00;;;;;;;0.63;0.25;;;;;;;;;;5004928;28;20110;-80
2023/06/13 04:18:27;;;;;;;0.20;0.10;;;;;;;;;;4989662;28;20044;-79
2023/06/13 04:20:53;;;;;;;0.63;0.32;;;;;;;;;;5002998;28;20040;-80
2023/06/13 04:23:20;;;;;;;0.20;0.10;;;;;;;;;;5012889;28;20068;-80
2023/06/13 04:25:46;;;;;;;0.20;0.10;;;;;;;;;;5010462;28;20041;-77
2023/06/13 04:28:15;;;;;;;0.30;0.28;;;;;;;;;;4991365;28;20033;-79
2023/06/13 04:30:41;;;;;;;0.93;0.47;;;;;;;;;;4984172;28;20353;-79
2023/06/13 04:33:14;;;;;;;1.08;0.35;;;;;;;;;;4983513;28;20280;-77
2023/06/13 04:35:44;;;;;;;;;;;;;;;;;;4999009;28;21596;-77
2023/06/13 04:38:11;;;;;;;0.20;0.10;;;;;;;;;;4982370;28;19960;-78
2023/06/13 04:40:38;;;;;;;0.20;0.10;;;;;;;;;;5012947;28;20046;-79
2023/06/13 04:43:04;;;;;;;0.32;0.20;;;;;;;;;;4990916;28;20060;-78
2023/06/13 04:45:30;;;;;;;0.20;0.17;;;;;;;;;;5000637;28;20040;-79
2023/06/13 04:48:01;;;;;;;0.20;0.10;;;;;;;;;;5014125;28;20507;-82
2023/06/13 04:50:28;;;;;;;0.20;0.10;;;;;;;;;;5010040;28;20056;-79
2023/06/13 04:52:54;;;;;;;0.20;0.10;;;;;;;;;;4990218;28;20097;-81
2023/06/13 04:55:25;;;;;;;0.20;0.10;;;;;;;;;;4995657;28;20627;-80
2023/06/13 04:57:51;;;;;;;0.63;0.57;;;;;;;;;;5006482;28;20045;-79
2023/06/13 05:00:18;;;;;;;0.50;0.20;;;;;;;;;;5011184;28;20033;-80
2023/06/13 05:02:45;;;;;;;0.20;0.10;;;;;;;;;;4995999;28;20402;-78
2023/06/13 05:05:14;;;;;;;0.20;0.20;;;;;;;;;;5004585;28;20448;-79
2023/06/13 05:07:40;;;;;;;0.20;0.10;;;;;;;;;;5012942;28;20540;-79
2023/06/13 05:10:08;;;;;;;0.20;0.10;;;;;;;;;;5015000;28;20138;-80
2023/06/13 05:12:34;;;;;;;0.20;0.10;;;;;;;;;;4990698;28;20125;-80
2023/06/13 05:15:00;;;;;;;0.38;0.10;;;;;;;;;;5025312;23;20531;-80
2023/06/13 05:17:27;;;;;;;0.20;0.20;;;;;;;;;;4988241;28;20048;-82
2023/06/13 05:19:54;;;;;;;0.20;0.10;;;;;;;;;;4997062;28;20480;-86
2023/06/13 05:22:20;;;;;;;0.20;0.10;;;;;;;;;;5009019;28;20046;-82
2023/06/13 05:24:47;;;;;;;0.20;0.13;;;;;;;;;;4996689;28;20041;-82
2023/06/13 05:27:13;;;;;;;0.20;0.13;;;;;;;;;;4986578;28;20072;-81
2023/06/13 05:29:40;;;;;;;0.20;0.10;;;;;;;;;;4988621;28;20124;-82
2023/06/13 05:32:06;;;;;;;0.20;0.10;;;;;;;;;;5006424;28;20049;-80
2023/06/13 05:34:32;;;;;;;0.20;0.13;;;;;;;;;;4996931;28;20036;-83
2023/06/13 05:36:58;;;;;;;0.40;0.20;;;;;;;;;;4984411;28;20169;-81
2023/06/13 05:39:24;;;;;;;1.02;0.70;;;;;;;;;;4994851;28;20177;-82
2023/06/13 05:41:50;;;;;;;0.20;0.10;;;;;;;;;;5004275;28;20173;-82
2023/06/13 05:44:16;;;;;;;0.73;0.40;;;;;;;;;;4992141;28;20041;-83
2023/06/13 05:46:42;;;;;;;0.20;0.10;;;;;;;;;;4994296;28;20075;-82
2023/06/13 05:49:08;;;;;;;0.32;0.20;;;;;;;;;;5007384;28;20034;-82
2023/06/13 05:51:34;;;;;;;0.22;0.13;;;;;;;;;;5007741;28;20106;-82
2023/06/13 05:54:01;;;;;;;0.30;0.30;;;;;;;;;;4992284;28;20407;-85
2023/06/13 05:56:27;;;;;;;0.20;0.20;;;;;;;;;;5008076;28;20089;-85
2023/06/13 05:58:53;;;;;;;0.20;0.10;;;;;;;;;;4987251;28;20508;-82
2023/06/13 06:01:20;;;;;;;0.20;0.20;;;;;;;;;;5002713;28;20941;-84
2023/06/13 06:03:46;;;;;;;0.20;0.17;;;;;;;;;;4989257;28;20033;-81
2023/06/13 06:06:13;;;;;;;0.20;0.10;;;;;;;;;;5004976;28;20425;-81
2023/06/13 06:08:39;;;;;;;0.20;0.10;;;;;;;;;;4986202;28;20580;-82
2023/06/13 06:11:05;;;;;;;0.20;0.20;;;;;;;;;;4988684;28;20045;-80
2023/06/13 06:13:31;;;;;;;0.55;0.30;;;;;;;;;;5003081;28;20040;-81
2023/06/13 06:15:57;;;;;;;0.20;0.10;;;;;;;;;;4983283;28;20049;-84
2023/06/13 06:18:23;;;;;;;0.20;0.10;;;;;;;;;;5007440;28;20045;-83
2023/06/13 06:20:49;;;;;;;0.22;0.13;;;;;;;;;;4994066;28;20048;-81
2023/06/13 06:23:16;;;;;;;0.55;0.35;;;;;;;;;;4995804;28;20233;-82
2023/06/13 06:25:42;;;;;;;0.20;0.20;;;;;;;;;;4991725;28;20176;-83
2023/06/13 06:28:11;;;;;;;0.20;0.10;;;;;;;;;;5000202;28;20159;-86
2023/06/13 06:30:37;;;;;;;0.60;0.38;;;;;;;;;;5000947;28;20044;-81
2023/06/13 06:33:03;;;;;;;0.20;0.10;;;;;;;;;;4980048;28;20049;-82
2023/06/13 06:35:29;;;;;;;0.20;0.10;;;;;;;;;;4993675;28;20300;-84
2023/06/13 06:37:55;;;;;;;0.30;0.20;;;;;;;;;;5005945;28;20041;-82
2023/06/13 06:40:21;;;;;;;0.55;0.40;;;;;;;;;;4996266;28;20042;-80
2023/06/13 06:42:47;;;;;;;0.20;0.20;;;;;;;;;;5013575;28;20132;-81
2023/06/13 06:45:13;;;;;;;0.47;0.20;;;;;;;;;;4992583;28;20152;-83
2023/06/13 06:47:39;;;;;;;0.52;0.35;;;;;;;;;;4994089;28;20045;-81
2023/06/13 06:50:05;;;;;;;0.20;0.20;;;;;;;;;;4988499;28;20578;-85
2023/06/13 06:52:32;;;;;;;0.20;0.10;;;;;;;;;;4997281;28;20765;-82
2023/06/13 06:54:58;;;;;;;0.20;0.10;;;;;;;;;;5010605;28;20051;-84
2023/06/13 06:57:24;;;;;;;0.20;0.10;;;;;;;;;;4997926;28;20045;-83
2023/06/13 06:59:50;;;;;;;0.20;0.10;;;;;;;;;;4993119;28;20557;-81
2023/06/13 07:02:16;;;;;;;0.22;0.22;;;;;;;;;;4993742;28;20146;-79
2023/06/13 07:04:42;;;;;;;0.20;0.10;;;;;;;;;;4997874;28;20036;-83
2023/06/13 07:07:08;;;;;;;0.20;0.20;;;;;;;;;;5019313;28;20666;-79
2023/06/13 07:09:34;;;;;;;0.20;0.20;;;;;;;;;;4998866;28;20033;-80
2023/06/13 07:12:03;;;;;;;0.20;0.17;;;;;;;;;;5005398;28;20041;-83
2023/06/13 07:14:29;;;;;;;0.20;0.10;;;;;;;;;;4997288;28;20071;-83
2023/06/13 07:16:55;;;;;;;0.20;0.10;;;;;;;;;;4981138;28;20052;-82
2023/06/13 07:19:23;;;;;;;0.20;0.10;;;;;;;;;;4976523;28;20317;-84
2023/06/13 07:21:49;;;;;;;0.20;0.20;;;;;;;;;;4975840;28;20033;-82
2023/06/13 07:24:15;;;;;;;0.20;0.20;;;;;;;;;;4972350;28;20045;-81
2023/06/13 07:26:41;;;;;;;0.20;0.20;;;;;;;;;;4984372;28;20065;-83
2023/06/13 07:29:07;;;;;;;0.45;0.40;;;;;;;;;;4962888;28;20132;-83
2023/06/13 07:31:33;;;;;;;0.30;0.20;;;;;;;;;;4982252;28;20042;-82
2023/06/13 07:33:59;;;;;;;0.20;0.20;;;;;;;;;;4982836;28;20072;-83
2023/06/13 07:36:27;;;;;;;0.20;0.10;;;;;;;;;;4987034;28;20461;-83
2023/06/13 07:38:53;;;;;;;0.77;0.38;;;;;;;;;;4973319;28;20210;-81
2023/06/13 07:41:19;;;;;;;0.30;0.28;;;;;;;;;;4984230;28;20072;-83
2023/06/13 07:43:45;;;;;;;0.28;0.17;;;;;;;;;;4972545;28;20495;-80
2023/06/13 07:46:11;;;;;;;0.20;0.10;;;;;;;;;;4976412;28;20046;-82
2023/06/13 07:48:37;;;;;;;0.20;0.10;;;;;;;;;;4973340;28;20490;-80
2023/06/13 07:51:05;;;;;;;0.20;0.10;;;;;;;;;;4980428;28;20176;-81
2023/06/13 07:53:31;;;;;;;0.75;0.20;;;;;;;;;;4972941;28;20047;-80
2023/06/13 07:55:57;;;;;;;0.20;0.15;;;;;;;;;;4985664;28;20041;-82
2023/06/13 07:58:23;;;;;;;0.47;0.43;;;;;;;;;;4985733;28;20091;-83
2023/06/13 08:00:50;;;;;;;0.28;0.28;;;;;;;;;;4965845;28;20037;-84
2023/06/13 08:03:16;;;;;;;0.40;0.32;;;;;;;;;;4985706;28;20516;-79
2023/06/13 08:05:42;;;;;;;0.20;0.10;;;;;;;;;;4967884;28;20084;-80
2023/06/13 08:08:08;;;;;;;0.52;0.35;;;;;;;;;;4969245;28;20152;-79
2023/06/13 08:10:34;;;;;;;0.20;0.10;;;;;;;;;;4984124;28;20077;-83
2023/06/13 08:13:00;;;;;;;0.22;0.20;;;;;;;;;;4993013;28;20045;-81
2023/06/13 08:15:26;;;;;;;0.20;0.10;;;;;;;;;;4988375;28;20445;-83
2023/06/13 08:17:54;;;;;;;0.20;0.10;;;;;;;;;;4978332;28;20050;-81
2023/06/13 08:20:20;;;;;;;0.20;0.10;;;;;;;;;;4991309;28;20049;-82
2023/06/13 08:22:46;;;;;;;0.20;0.10;;;;;;;;;;4971920;28;20037;-84
2023/06/13 08:25:12;;;;;;;0.30;0.20;;;;;;;;;;4975117;28;20505;-78
2023/06/13 08:27:43;;;;;;;0.20;0.10;;;;;;;;;;4967351;28;20056;-83
2023/06/13 08:30:09;;;;;;;0.20;0.10;;;;;;;;;;4987478;28;20488;-84
2023/06/13 08:32:35;;;;;;;0.20;0.10;;;;;;;;;;4967208;28;20041;-78
2023/06/13 08:35:02;;;;;;;0.35;0.30;;;;;;;;;;4968746;28;20053;-80
2023/06/13 08:37:28;;;;;;;0.20;0.10;;;;;;;;;;4966807;28;20080;-83
2023/06/13 08:39:54;;;;;;;0.25;0.10;;;;;;;;;;4978277;28;20046;-80
2023/06/13 08:42:20;;;;;;;0.50;0.25;;;;;;;;;;4984830;28;20041;-80
2023/06/13 08:44:48;;;;;;;0.20;0.10;;;;;;;;;;4971742;28;20529;-81
2023/06/13 08:47:16;;;;;;;0.20;0.10;;;;;;;;;;4970638;28;20045;-82
2023/06/13 08:49:43;;;;;;;0.20;0.10;;;;;;;;;;4989855;28;20647;-80
2023/06/13 08:52:13;;;;;;;1.95;0.28;;;;;;;;;;4986305;28;20042;-80
2023/06/13 08:54:43;;;;;;;0.57;0.55;;;;;;;;;;4970147;28;20107;-80
2023/06/13 08:57:18;;;;;;;0.20;0.10;;;;;;;;;;4985937;28;20101;-84
2023/06/13 08:59:45;;;;;;;0.20;0.20;;;;;;;;;;4981588;28;20056;-82
2023/06/13 09:02:15;;;;;;;0.85;0.40;;;;;;;;;;4974309;28;20555;-81
2023/06/13 09:04:43;;;;;;;0.40;0.20;;;;;;;;;;4971072;28;20047;-83
2023/06/13 09:07:10;;;;;;;0.20;0.20;;;;;;;;;;4970870;28;20152;-80
2023/06/13 09:09:37;;;;;;;0.20;0.10;;;;;;;;;;4988597;28;20041;-84
2023/06/13 09:12:03;;;;;;;0.20;0.10;;;;;;;;;;4969647;28;20042;-81
2023/06/13 09:14:29;;;;;;;0.20;0.10;;;;;;;;;;4971191;28;20319;-82
2023/06/13 09:16:55;;;;;;;0.20;0.10;;;;;;;;;;4981581;28;20399;-80
2023/06/13 09:19:21;;;;;;;0.20;0.10;;;;;;;;;;5005505;28;20695;-84
2023/06/13 09:21:47;;;;;;;0.47;0.30;;;;;;;;;;4990514;28;20044;-82
2023/06/13 09:24:14;;;;;;;0.30;0.20;;;;;;;;;;5007965;28;20033;-82
2023/06/13 09:26:40;;;;;;;0.28;0.20;;;;;;;;;;5005872;28;20515;-80
2023/06/13 09:29:07;;;;;;;0.20;0.10;;;;;;;;;;4993384;28;20041;-83
2023/06/13 09:31:36;;;;;;;0.20;0.20;;;;;;;;;;4986900;28;20056;-81
2023/06/13 09:34:08;;;;;;;0.20;0.10;;;;;;;;;;4988801;28;20051;-80
2023/06/13 09:36:35;;;;;;;0.70;0.20;;;;;;;;;;5008024;28;20048;-84
2023/06/13 09:39:02;;;;;;;0.20;0.10;;;;;;;;;;5023770;28;20098;-81
2023/06/13 09:41:31;;;;;;;0.93;0.20;;;;;;;;;;4983633;28;20425;-81
2023/06/13 09:43:57;;;;;;;0.20;0.13;;;;;;;;;;5004535;28;20037;-83
2023/06/13 09:46:24;;;;;;;0.20;0.10;;;;;;;;;;4995713;28;20033;-85
2023/06/13 09:48:50;;;;;;;0.30;0.20;;;;;;;;;;5017487;28;20126;-84
2023/06/13 09:51:16;;;;;;;0.30;0.20;;;;;;;;;;5004886;28;20089;-82
2023/06/13 09:53:47;;;;;;;0.20;0.10;;;;;;;;;;5008264;28;20655;-82
2023/06/13 09:56:13;;;;;;;0.20;0.13;;;;;;;;;;5006136;28;20370;-82
2023/06/13 09:58:39;;;;;;;0.88;0.35;;;;;;;;;;5000254;28;20514;-80
2023/06/13 10:01:11;;;;;;;0.20;0.10;;;;;;;;;;5008197;28;20242;-81
2023/06/13 10:03:37;;;;;;;1.55;0.30;;;;;;;;;;4990193;28;20362;-83
2023/06/13 10:06:04;;;;;;;0.20;0.20;;;;;;;;;;4984016;28;20033;-81
2023/06/13 10:08:31;;;;;;;0.22;0.22;;;;;;;;;;4987844;28;20356;-82
2023/06/13 10:11:00;;;;;;;0.20;0.20;;;;;;;;;;5022853;28;20320;-83
2023/06/13 10:13:29;;;;;;;0.95;0.20;;;;;;;;;;4987455;28;20318;-84
2023/06/13 10:15:56;;;;;;;0.20;0.10;;;;;;;;;;4981309;28;20091;-82
2023/06/13 10:18:23;;;;;;;0.50;0.32;;;;;;;;;;4979371;28;20575;-81
2023/06/13 10:20:49;;;;;;;0.20;0.15;;;;;;;;;;4977254;28;20045;-83
2023/06/13 10:23:18;;;;;;;0.20;0.10;;;;;;;;;;4971810;28;20479;-82
2023/06/13 10:25:45;;;;;;;0.25;0.15;;;;;;;;;;5002344;28;20481;-82
2023/06/13 10:28:31;;;;;;;0.20;0.10;;;;;;;;;;4970353;28;20160;-83
2023/06/13 10:30:57;;;;;;;0.25;0.25;;;;;;;;;;4982235;28;20040;-81
2023/06/13 10:33:39;;;;;;;0.50;0.30;;;;;;;;;;4989755;28;20045;-79
2023/06/13 10:36:16;;;;;;;0.40;0.30;;;;;;;;;;4991800;28;20161;-82
2023/06/13 10:38:53;;;;;;;0.20;0.20;;;;;;;;;;5008804;28;20543;-82
2023/06/13 10:41:26;;;;;;;0.20;0.10;;;;;;;;;;4968483;28;20041;-83
2023/06/13 10:43:52;;;;;;;0.20;0.10;;;;;;;;;;4987680;28;20045;-80
2023/06/13 10:46:18;;;;;;;0.20;0.15;;;;;;;;;;4981016;28;20041;-81
2023/06/13 10:48:48;;;;;;;0.20;0.10;;;;;;;;;;4971438;28;20045;-82
2023/06/13 10:51:19;;;;;;;0.40;0.35;;;;;;;;;;4994722;28;20052;-82
2023/06/13 10:53:45;;;;;;;0.65;0.25;;;;;;;;;;4975369;28;20061;-81
2023/06/13 10:56:14;;;;;;;0.20;0.20;;;;;;;;;;4977682;28;20045;-85
2023/06/13 10:58:40;;;;;;;0.50;0.30;;;;;;;;;;4970969;28;20033;-81
2023/06/13 11:01:25;;;;;;;0.20;0.20;;;;;;;;;;4988590;28;20045;-81
2023/06/13 11:03:51;;;;;;;0.20;0.10;;;;;;;;;;4977349;28;20037;-80
2023/06/13 11:06:17;;;;;;;0.22;0.10;;;;;;;;;;4975948;28;20485;-81
2023/06/13 11:08:46;;;;;;;0.60;0.45;;;;;;;;;;4965763;28;20045;-83
2023/06/13 11:11:12;;;;;;;0.20;0.10;;;;;;;;;;4973784;28;20040;-82
2023/06/13 11:13:38;;;;;;;0.20;0.20;;;;;;;;;;4978780;28;20034;-83
2023/06/13 11:16:19;;;;;;;0.20;0.10;;;;;;;;;;5013350;22;20045;-79
2023/06/13 11:18:46;;;;;;;0.20;0.10;;;;;;;;;;5023870;28;20049;-77
2023/06/13 11:21:12;;;;;;;0.20;0.10;;;;;;;;;;5024717;28;20079;-79
2023/06/13 11:23:49;;;;;;;0.20;0.10;;;;;;;;;;5022313;28;20574;-83
2023/06/13 11:26:20;;;;;;;0.20;0.20;;;;;;;;;;5012710;28;20098;-78
2023/06/13 11:28:52;;;;;;;0.20;0.10;;;;;;;;;;5027686;28;20469;-78
2023/06/13 11:31:22;;;;;;;0.20;0.10;;;;;;;;;;5007801;28;20049;-78
2023/06/13 11:33:52;;;;;;;0.20;0.15;;;;;;;;;;5029633;28;20045;-79
2023/06/13 11:36:19;;;;;;;0.40;0.32;;;;;;;;;;5025360;28;20065;-81
2023/06/13 11:38:50;;;;;;;0.20;0.17;;;;;;;;;;5026642;28;20856;-82
2023/06/13 11:41:16;;;;;;;0.60;0.30;;;;;;;;;;5022560;28;20051;-83
2023/06/13 11:43:42;;;;;;;0.20;0.20;;;;;;;;;;5009942;28;20045;-79
2023/06/13 11:46:12;;;;;;;0.20;0.10;;;;;;;;;;5030916;28;20095;-78
2023/06/13 11:48:38;;;;;;;0.28;0.25;;;;;;;;;;5024897;28;20048;-79
2023/06/13 11:51:14;;;;;;;0.20;0.10;;;;;;;;;;5016895;28;20072;-79
2023/06/13 11:53:57;;;;;;;0.20;0.20;;;;;;;;;;5010629;28;20077;-79
2023/06/13 11:56:27;;;;;;;0.20;0.10;;;;;;;;;;5029091;28;20049;-81
2023/06/13 11:58:54;;;;;;;0.20;0.20;;;;;;;;;;5014295;28;20078;-78
2023/06/13 12:01:23;;;;;;;0.20;0.20;;;;;;;;;;5030361;28;20037;-79
2023/06/13 12:03:49;;;;;;;0.20;0.10;;;;;;;;;;5027868;28;20049;-81
2023/06/13 12:06:16;;;;;;;0.20;0.10;;;;;;;;;;5029514;28;20096;-81
2023/06/13 12:08:44;;;;;;;0.20;0.10;;;;;;;;;;5014006;28;20110;-78
2023/06/13 12:11:11;;;;;;;0.20;0.13;;;;;;;;;;5017500;28;20129;-79
2023/06/13 12:13:37;;;;;;;0.20;0.20;;;;;;;;;;5026196;28;20120;-79
2023/06/13 12:16:07;;;;;;;0.57;0.20;;;;;;;;;;5031181;28;20096;-78
2023/06/13 12:18:33;;;;;;;0.52;0.43;;;;;;;;;;5030819;28;20595;-81
2023/06/13 12:20:59;;;;;;;0.30;0.30;;;;;;;;;;5014314;28;20045;-79
2023/06/13 12:23:26;;;;;;;0.35;0.32;;;;;;;;;;5028746;28;20064;-78
2023/06/13 12:25:52;;;;;;;0.25;0.20;;;;;;;;;;5030737;28;20090;-79
2023/06/13 12:28:19;;;;;;;0.40;0.40;;;;;;;;;;5025422;28;20037;-84
2023/06/13 12:30:49;;;;;;;0.20;0.10;;;;;;;;;;5012038;28;20130;-77
2023/06/13 12:33:18;;;;;;;0.20;0.10;;;;;;;;;;5027666;28;20061;-80
2023/06/13 12:35:51;;;;;;;0.20;0.10;;;;;;;;;;5009313;28;20670;-79
2023/06/13 12:38:16;;;;;;;;;;;;;;;;;;5023458;28;20060;-80
2023/06/13 12:40:43;;;;;;;0.20;0.20;;;;;;;;;;5029314;28;19929;-80
2023/06/13 12:43:08;;;;;;;0.30;0.30;;;;;;;;;;5008385;28;20047;-80
2023/06/13 12:45:34;;;;;;;0.20;0.10;;;;;;;;;;5021121;28;20033;-79
2023/06/13 12:48:01;;;;;;;0.20;0.10;;;;;;;;;;5018609;28;20040;-77
2023/06/13 12:50:29;;;;;;;0.30;0.30;;;;;;;;;;5008292;28;20040;-83
2023/06/13 12:53:08;;;;;;;0.20;0.13;;;;;;;;;;5012114;28;20048;-80
2023/06/13 12:55:38;;;;;;;0.30;0.25;;;;;;;;;;5026858;28;20045;-79
2023/06/13 12:58:23;;;;;;;0.25;0.15;;;;;;;;;;5008868;28;20037;-80
2023/06/13 13:00:51;;;;;;;0.30;0.10;;;;;;;;;;5023844;28;20049;-82
2023/06/13 13:03:17;;;;;;;0.20;0.10;;;;;;;;;;5039524;28;20044;-78
2023/06/13 13:05:43;;;;;;;0.20;0.10;;;;;;;;;;5013086;28;20068;-79
2023/06/13 13:08:09;;;;;;;1.90;0.38;;;;;;;;;;5022933;28;20042;-79
2023/06/13 13:10:35;;;;;;;0.20;0.10;;;;;;;;;;5028407;28;21474;-80
2023/06/13 13:13:03;;;;;;;0.22;0.20;;;;;;;;;;5022908;28;20049;-79
2023/06/13 13:15:30;;;;;;;0.20;0.20;;;;;;;;;;5019568;28;20076;-79
2023/06/13 13:17:56;;;;;;;0.20;0.10;;;;;;;;;;5009074;28;20045;-79
2023/06/13 13:20:22;;;;;;;0.20;0.10;;;;;;;;;;5025550;28;20103;-81
2023/06/13 13:22:48;;;;;;;0.30;0.30;;;;;;;;;;5028176;28;20064;-78
2023/06/13 13:25:14;;;;;;;0.30;0.30;;;;;;;;;;5026570;28;21015;-78
2023/06/13 13:27:40;;;;;;;0.20;0.10;;;;;;;;;;5022205;28;20206;-83
2023/06/13 13:30:07;;;;;;;0.20;0.10;;;;;;;;;;5007413;28;20045;-79
2023/06/13 13:32:33;;;;;;;0.30;0.30;;;;;;;;;;5007273;28;20037;-82
2023/06/13 13:35:01;;;;;;;0.20;0.10;;;;;;;;;;5025415;28;20044;-82
2023/06/13 13:37:27;;;;;;;0.30;0.28;;;;;;;;;;5008318;28;20049;-79
2023/06/13 13:39:53;;;;;;;0.35;0.25;;;;;;;;;;5027792;28;20044;-86
2023/06/13 13:42:19;;;;;;;0.20;0.20;;;;;;;;;;5009261;28;20478;-81
2023/06/13 13:44:47;;;;;;;0.20;0.17;;;;;;;;;;5010720;28;20033;-79
2023/06/13 13:47:13;;;;;;;0.43;0.40;;;;;;;;;;5008838;28;20128;-77
2023/06/13 13:49:39;;;;;;;0.20;0.20;;;;;;;;;;5007489;28;21986;-84
2023/06/13 13:52:05;;;;;;;0.20;0.20;;;;;;;;;;5011355;28;20154;-79
2023/06/13 13:54:31;;;;;;;0.35;0.35;;;;;;;;;;5027816;28;20048;-82
2023/06/13 13:56:58;;;;;;;0.20;0.10;;;;;;;;;;5021559;28;20044;-84
2023/06/13 13:59:24;;;;;;;0.30;0.30;;;;;;;;;;5025233;28;20087;-79
2023/06/13 14:01:50;;;;;;;0.60;0.38;;;;;;;;;;5024625;28;20052;-78
2023/06/13 14:04:18;;;;;;;0.20;0.13;;;;;;;;;;5028974;28;20937;-80
2023/06/13 14:06:47;;;;;;;0.20;0.10;;;;;;;;;;5024956;28;20045;-78
2023/06/13 14:09:16;;;;;;;0.20;0.10;;;;;;;;;;5027293;28;20076;-79
2023/06/13 14:11:42;;;;;;;0.20;0.20;;;;;;;;;;5033201;28;20060;-78
2023/06/13 14:14:08;;;;;;;0.20;0.10;;;;;;;;;;5013742;28;20816;-86
2023/06/13 14:16:34;;;;;;;0.20;0.10;;;;;;;;;;5011435;28;20491;-79
2023/06/13 14:19:00;;;;;;;0.30;0.20;;;;;;;;;;5011319;28;20042;-78
2023/06/13 14:21:26;;;;;;;0.20;0.15;;;;;;;;;;5018452;28;20438;-79
2023/06/13 14:23:55;;;;;;;0.20;0.20;;;;;;;;;;5017029;28;20130;-81
2023/06/13 14:26:25;;;;;;;0.20;0.13;;;;;;;;;;5031878;28;20046;-80
2023/06/13 14:28:51;;;;;;;0.20;0.10;;;;;;;;;;5027757;28;20052;-78
2023/06/13 14:31:17;;;;;;;0.20;0.10;;;;;;;;;;5031046;28;20126;-82
2023/06/13 14:33:43;;;;;;;0.25;0.15;;;;;;;;;;5024434;28;20139;-79
2023/06/13 14:36:10;;;;;;;0.30;0.25;;;;;;;;;;5027071;28;20087;-81
2023/06/13 14:38:41;;;;;;;4.13;0.47;;;;;;;;;;5011658;28;20033;-80
2023/06/13 14:41:07;;;;;;;0.20;0.20;;;;;;;;;;5030246;28;20051;-84
2023/06/13 14:43:33;;;;;;;0.20;0.20;;;;;;;;;;5030536;28;20092;-82